sensor_id;sensor_type;location;lat;lon;timestamp;pressure;altitude;pressure_sealevel;temperature;humidity
18795;BME280;29610;49.022;12.114;2023-03-25T00:00:00;97105.44;;;9.12;100.00
18795;BME280;29610;49.022;12.114;2023-03-25T00:02:53;97101.31;;;9.06;100.00
18795;BME280;29610;49.022;12.114;2023-03-25T00:05:44;97102.47;;;9.05;100.00
18795;BME280;29610;49.022;12.114;2023-03-25T00:08:35;97109.63;;;9.01;100.00
18795;BME280;29610;49.022;12.114;2023-03-25T00:11:24;97106.75;;;9.06;100.00
18795;BME280;29610;49.022;12.114;2023-03-25T00:14:15;97104.34;;;9.13;100.00
18795;BME280;29610;49.022;12.114;2023-03-25T00:17:04;97109.56;;;9.18;100.00
18795;BME280;29610;49.022;12.114;2023-03-25T00:19:54;97100.50;;;9.14;100.00
18795;BME280;29610;49.022;12.114;2023-03-25T00:22:43;97103.47;;;9.21;100.00
18795;BME280;29610;49.022;12.114;2023-03-25T00:25:33;97104.00;;;9.14;100.00
18795;BME280;29610;49.022;12.114;2023-03-25T00:28:22;97098.63;;;9.06;100.00
18795;BME280;29610;49.022;12.114;2023-03-25T00:31:13;97103.88;;;9.02;100.00
18795;BME280;29610;49.022;12.114;2023-03-25T00:34:02;97098.47;;;9.02;100.00
18795;BME280;29610;49.022;12.114;2023-03-25T00:36:51;97088.69;;;9.10;100.00
18795;BME280;29610;49.022;12.114;2023-03-25T00:39:40;97088.00;;;9.21;100.00
18795;BME280;29610;49.022;12.114;2023-03-25T00:42:31;97096.59;;;9.32;100.00
18795;BME280;29610;49.022;12.114;2023-03-25T00:45:22;97082.50;;;9.38;100.00
18795;BME280;29610;49.022;12.114;2023-03-25T00:48:11;97084.09;;;9.39;100.00
18795;BME280;29610;49.022;12.114;2023-03-25T00:51:00;97080.78;;;9.54;100.00
18795;BME280;29610;49.022;12.114;2023-03-25T00:53:57;97078.22;;;9.58;100.00
18795;BME280;29610;49.022;12.114;2023-03-25T00:56:46;97075.00;;;9.64;100.00
18795;BME280;29610;49.022;12.114;2023-03-25T00:59:37;97067.81;;;9.68;100.00
18795;BME280;29610;49.022;12.114;2023-03-25T01:02:26;97067.47;;;9.70;100.00
18795;BME280;29610;49.022;12.114;2023-03-25T01:05:15;97076.00;;;9.80;100.00
18795;BME280;29610;49.022;12.114;2023-03-25T01:08:04;97078.00;;;9.92;100.00
18795;BME280;29610;49.022;12.114;2023-03-25T01:10:53;97076.59;;;9.86;100.00
18795;BME280;29610;49.022;12.114;2023-03-25T01:13:42;97072.03;;;9.78;100.00
18795;BME280;29610;49.022;12.114;2023-03-25T01:16:33;97063.44;;;9.76;100.00
18795;BME280;29610;49.022;12.114;2023-03-25T01:19:22;97061.63;;;9.80;100.00
18795;BME280;29610;49.022;12.114;2023-03-25T01:22:13;97065.53;;;9.91;100.00
18795;BME280;29610;49.022;12.114;2023-03-25T01:25:03;97052.97;;;9.86;100.00
18795;BME280;29610;49.022;12.114;2023-03-25T01:27:52;97054.75;;;9.82;100.00
18795;BME280;29610;49.022;12.114;2023-03-25T01:30:40;97050.72;;;9.88;100.00
18795;BME280;29610;49.022;12.114;2023-03-25T01:33:31;97053.75;;;9.87;100.00
18795;BME280;29610;49.022;12.114;2023-03-25T01:36:20;97060.22;;;9.94;100.00
18795;BME280;29610;49.022;12.114;2023-03-25T01:39:13;97054.81;;;9.94;100.00
18795;BME280;29610;49.022;12.114;2023-03-25T01:42:03;97060.22;;;9.94;100.00
18795;BME280;29610;49.022;12.114;2023-03-25T01:45:25;97060.72;;;9.96;100.00
18795;BME280;29610;49.022;12.114;2023-03-25T01:48:20;97053.81;;;9.99;100.00
18795;BME280;29610;49.022;12.114;2023-03-25T01:51:17;97059.38;;;9.82;100.00
18795;BME280;29610;49.022;12.114;2023-03-25T01:54:07;97058.53;;;9.90;100.00
18795;BME280;29610;49.022;12.114;2023-03-25T01:57:00;97052.25;;;9.77;100.00
18795;BME280;29610;49.022;12.114;2023-03-25T01:59:50;97045.94;;;9.85;100.00
18795;BME280;29610;49.022;12.114;2023-03-25T02:02:42;97041.53;;;9.81;100.00
18795;BME280;29610;49.022;12.114;2023-03-25T02:05:41;97046.22;;;9.92;100.00
18795;BME280;29610;49.022;12.114;2023-03-25T02:08:37;97047.16;;;9.76;100.00
18795;BME280;29610;49.022;12.114;2023-03-25T02:11:28;97048.00;;;9.88;100.00
18795;BME280;29610;49.022;12.114;2023-03-25T02:14:21;97038.94;;;9.84;100.00
18795;BME280;29610;49.022;12.114;2023-03-25T02:17:24;97042.72;;;9.92;100.00
18795;BME280;29610;49.022;12.114;2023-03-25T02:21:01;97051.72;;;9.84;100.00
18795;BME280;29610;49.022;12.114;2023-03-25T02:24:52;97053.63;;;9.83;100.00
18795;BME280;29610;49.022;12.114;2023-03-25T02:27:57;97041.97;;;9.83;100.00
18795;BME280;29610;49.022;12.114;2023-03-25T02:31:13;97045.75;;;9.70;100.00
18795;BME280;29610;49.022;12.114;2023-03-25T02:34:41;97040.06;;;9.63;100.00
18795;BME280;29610;49.022;12.114;2023-03-25T02:38:17;97046.81;;;9.57;100.00
18795;BME280;29610;49.022;12.114;2023-03-25T02:41:20;97050.84;;;9.51;100.00
18795;BME280;29610;49.022;12.114;2023-03-25T02:44:21;97057.66;;;9.57;100.00
18795;BME280;29610;49.022;12.114;2023-03-25T02:47:17;97056.63;;;9.70;100.00
18795;BME280;29610;49.022;12.114;2023-03-25T02:50:13;97046.81;;;9.77;100.00
18795;BME280;29610;49.022;12.114;2023-03-25T02:53:09;97048.06;;;9.80;100.00
18795;BME280;29610;49.022;12.114;2023-03-25T02:56:06;97042.91;;;9.66;100.00
18795;BME280;29610;49.022;12.114;2023-03-25T02:58:59;97039.00;;;9.76;100.00
18795;BME280;29610;49.022;12.114;2023-03-25T03:01:55;97034.38;;;9.76;100.00
18795;BME280;29610;49.022;12.114;2023-03-25T03:04:50;97044.38;;;9.84;100.00
18795;BME280;29610;49.022;12.114;2023-03-25T03:07:44;97036.28;;;9.76;100.00
18795;BME280;29610;49.022;12.114;2023-03-25T03:10:48;97037.88;;;9.77;100.00
18795;BME280;29610;49.022;12.114;2023-03-25T03:14:11;97035.16;;;9.77;100.00
18795;BME280;29610;49.022;12.114;2023-03-25T03:17:13;97033.50;;;9.64;100.00
18795;BME280;29610;49.022;12.114;2023-03-25T03:20:17;97025.63;;;9.71;100.00
18795;BME280;29610;49.022;12.114;2023-03-25T03:23:13;97029.41;;;9.58;100.00
18795;BME280;29610;49.022;12.114;2023-03-25T03:26:17;97030.53;;;9.57;100.00
18795;BME280;29610;49.022;12.114;2023-03-25T03:29:15;97016.69;;;9.50;100.00
18795;BME280;29610;49.022;12.114;2023-03-25T03:32:10;97023.44;;;9.44;100.00
18795;BME280;29610;49.022;12.114;2023-03-25T03:35:08;97026.34;;;9.39;100.00
18795;BME280;29610;49.022;12.114;2023-03-25T03:38:04;97022.38;;;9.36;100.00
18795;BME280;29610;49.022;12.114;2023-03-25T03:41:01;97019.16;;;9.43;100.00
18795;BME280;29610;49.022;12.114;2023-03-25T03:43:56;97018.22;;;9.39;100.00
18795;BME280;29610;49.022;12.114;2023-03-25T03:46:52;97009.94;;;9.35;100.00
18795;BME280;29610;49.022;12.114;2023-03-25T03:49:52;97010.22;;;9.42;100.00
18795;BME280;29610;49.022;12.114;2023-03-25T03:52:50;97029.13;;;9.30;100.00
18795;BME280;29610;49.022;12.114;2023-03-25T03:55:48;97035.66;;;9.29;100.00
18795;BME280;29610;49.022;12.114;2023-03-25T03:58:41;97034.34;;;9.35;100.00
18795;BME280;29610;49.022;12.114;2023-03-25T04:01:38;97043.41;;;9.39;100.00
18795;BME280;29610;49.022;12.114;2023-03-25T04:04:34;97040.72;;;9.39;100.00
18795;BME280;29610;49.022;12.114;2023-03-25T04:07:33;97050.22;;;9.45;100.00
18795;BME280;29610;49.022;12.114;2023-03-25T04:10:33;97042.03;;;9.33;100.00
18795;BME280;29610;49.022;12.114;2023-03-25T04:13:31;97047.19;;;9.18;100.00
18795;BME280;29610;49.022;12.114;2023-03-25T04:16:22;97046.16;;;9.02;100.00
18795;BME280;29610;49.022;12.114;2023-03-25T04:19:11;97052.63;;;8.88;100.00
18795;BME280;29610;49.022;12.114;2023-03-25T04:22:06;97049.00;;;8.76;100.00
18795;BME280;29610;49.022;12.114;2023-03-25T04:24:55;97055.88;;;8.73;100.00
18795;BME280;29610;49.022;12.114;2023-03-25T04:27:47;97055.72;;;8.70;100.00
18795;BME280;29610;49.022;12.114;2023-03-25T04:30:36;97062.59;;;8.59;100.00
18795;BME280;29610;49.022;12.114;2023-03-25T04:33:25;97055.63;;;8.49;100.00
18795;BME280;29610;49.022;12.114;2023-03-25T04:36:16;97057.56;;;8.40;100.00
18795;BME280;29610;49.022;12.114;2023-03-25T04:39:08;97058.03;;;8.42;100.00
18795;BME280;29610;49.022;12.114;2023-03-25T04:41:58;97050.88;;;8.38;100.00
18795;BME280;29610;49.022;12.114;2023-03-25T04:44:49;97057.25;;;8.33;100.00
18795;BME280;29610;49.022;12.114;2023-03-25T04:47:39;97047.56;;;8.24;100.00
18795;BME280;29610;49.022;12.114;2023-03-25T04:50:31;97058.22;;;8.29;100.00
18795;BME280;29610;49.022;12.114;2023-03-25T04:53:20;97052.00;;;8.20;100.00
18795;BME280;29610;49.022;12.114;2023-03-25T04:56:15;97053.59;;;8.29;100.00
18795;BME280;29610;49.022;12.114;2023-03-25T04:59:04;97056.91;;;8.43;100.00
18795;BME280;29610;49.022;12.114;2023-03-25T05:01:53;97054.31;;;8.55;100.00
18795;BME280;29610;49.022;12.114;2023-03-25T05:04:42;97056.69;;;8.65;100.00
18795;BME280;29610;49.022;12.114;2023-03-25T05:07:34;97056.53;;;8.70;100.00
18795;BME280;29610;49.022;12.114;2023-03-25T05:10:25;97052.50;;;8.76;100.00
18795;BME280;29610;49.022;12.114;2023-03-25T05:13:18;97048.63;;;8.86;100.00
18795;BME280;29610;49.022;12.114;2023-03-25T05:16:07;97056.63;;;8.82;100.00
18795;BME280;29610;49.022;12.114;2023-03-25T05:18:57;97048.94;;;8.93;100.00
18795;BME280;29610;49.022;12.114;2023-03-25T05:21:46;97047.47;;;8.96;100.00
18795;BME280;29610;49.022;12.114;2023-03-25T05:24:35;97048.38;;;9.08;100.00
18795;BME280;29610;49.022;12.114;2023-03-25T05:27:24;97050.25;;;9.16;100.00
18795;BME280;29610;49.022;12.114;2023-03-25T05:30:16;97057.28;;;9.17;100.00
18795;BME280;29610;49.022;12.114;2023-03-25T05:33:06;97057.88;;;9.23;100.00
18795;BME280;29610;49.022;12.114;2023-03-25T05:35:55;97067.81;;;9.10;100.00
18795;BME280;29610;49.022;12.114;2023-03-25T05:38:44;97060.44;;;9.19;100.00
18795;BME280;29610;49.022;12.114;2023-03-25T05:41:33;97055.47;;;9.21;100.00
18795;BME280;29610;49.022;12.114;2023-03-25T05:44:25;97053.38;;;9.27;100.00
18795;BME280;29610;49.022;12.114;2023-03-25T05:47:16;97054.94;;;9.57;100.00
18795;BME280;29610;49.022;12.114;2023-03-25T05:50:07;97062.28;;;9.56;100.00
18795;BME280;29610;49.022;12.114;2023-03-25T05:52:57;97063.75;;;9.74;100.00
18795;BME280;29610;49.022;12.114;2023-03-25T05:55:46;97065.75;;;9.86;100.00
18795;BME280;29610;49.022;12.114;2023-03-25T05:58:39;97059.38;;;10.02;100.00
18795;BME280;29610;49.022;12.114;2023-03-25T06:01:28;97064.94;;;10.06;100.00
18795;BME280;29610;49.022;12.114;2023-03-25T06:04:22;97061.41;;;10.05;100.00
18795;BME280;29610;49.022;12.114;2023-03-25T06:07:12;97075.16;;;10.09;100.00
18795;BME280;29610;49.022;12.114;2023-03-25T06:10:07;97079.38;;;9.77;100.00
18795;BME280;29610;49.022;12.114;2023-03-25T06:12:56;97090.56;;;9.76;100.00
18795;BME280;29610;49.022;12.114;2023-03-25T06:15:45;97083.75;;;9.70;100.00
18795;BME280;29610;49.022;12.114;2023-03-25T06:18:35;97091.56;;;9.92;100.00
18795;BME280;29610;49.022;12.114;2023-03-25T06:21:26;97086.41;;;10.19;100.00
18795;BME280;29610;49.022;12.114;2023-03-25T06:24:16;97092.50;;;10.37;100.00
18795;BME280;29610;49.022;12.114;2023-03-25T06:27:06;97107.09;;;10.45;100.00
18795;BME280;29610;49.022;12.114;2023-03-25T06:29:56;97104.38;;;10.45;100.00
18795;BME280;29610;49.022;12.114;2023-03-25T06:32:45;97105.63;;;10.47;100.00
18795;BME280;29610;49.022;12.114;2023-03-25T06:35:37;97106.38;;;10.56;100.00
18795;BME280;29610;49.022;12.114;2023-03-25T06:38:27;97107.34;;;10.52;100.00
18795;BME280;29610;49.022;12.114;2023-03-25T06:41:27;97114.41;;;10.32;100.00
18795;BME280;29610;49.022;12.114;2023-03-25T06:44:37;97123.13;;;10.38;100.00
18795;BME280;29610;49.022;12.114;2023-03-25T06:47:55;97119.06;;;10.44;100.00
18795;BME280;29610;49.022;12.114;2023-03-25T06:50:43;97120.38;;;10.25;100.00
18795;BME280;29610;49.022;12.114;2023-03-25T06:53:34;97121.38;;;10.21;100.00
18795;BME280;29610;49.022;12.114;2023-03-25T06:56:23;97121.34;;;10.42;100.00
18795;BME280;29610;49.022;12.114;2023-03-25T06:59:12;97138.19;;;10.35;100.00
18795;BME280;29610;49.022;12.114;2023-03-25T07:02:01;97133.53;;;10.35;100.00
18795;BME280;29610;49.022;12.114;2023-03-25T07:04:50;97132.75;;;10.35;100.00
18795;BME280;29610;49.022;12.114;2023-03-25T07:07:39;97148.22;;;10.55;100.00
18795;BME280;29610;49.022;12.114;2023-03-25T07:10:29;97146.38;;;10.47;100.00
18795;BME280;29610;49.022;12.114;2023-03-25T07:13:18;97142.88;;;10.47;100.00
18795;BME280;29610;49.022;12.114;2023-03-25T07:16:09;97141.03;;;10.71;100.00
18795;BME280;29610;49.022;12.114;2023-03-25T07:19:01;97146.47;;;11.04;100.00
18795;BME280;29610;49.022;12.114;2023-03-25T07:21:50;97150.75;;;11.05;100.00
18795;BME280;29610;49.022;12.114;2023-03-25T07:24:39;97160.94;;;10.96;100.00
18795;BME280;29610;49.022;12.114;2023-03-25T07:27:29;97165.41;;;11.24;100.00
18795;BME280;29610;49.022;12.114;2023-03-25T07:30:26;97168.34;;;11.19;100.00
18795;BME280;29610;49.022;12.114;2023-03-25T07:33:15;97165.06;;;11.26;100.00
18795;BME280;29610;49.022;12.114;2023-03-25T07:36:06;97150.16;;;10.87;100.00
18795;BME280;29610;49.022;12.114;2023-03-25T07:38:55;97162.34;;;11.26;100.00
18795;BME280;29610;49.022;12.114;2023-03-25T07:41:45;97165.38;;;11.69;100.00
18795;BME280;29610;49.022;12.114;2023-03-25T07:45:13;97152.06;;;11.79;100.00
18795;BME280;29610;49.022;12.114;2023-03-25T07:48:04;97153.91;;;12.39;100.00
18795;BME280;29610;49.022;12.114;2023-03-25T07:51:00;97149.44;;;12.47;100.00
18795;BME280;29610;49.022;12.114;2023-03-25T07:53:48;97157.06;;;12.96;100.00
18795;BME280;29610;49.022;12.114;2023-03-25T07:56:37;97146.47;;;12.79;100.00
18795;BME280;29610;49.022;12.114;2023-03-25T07:59:26;97147.25;;;13.23;100.00
18795;BME280;29610;49.022;12.114;2023-03-25T08:02:17;97145.84;;;13.13;100.00
18795;BME280;29610;49.022;12.114;2023-03-25T08:05:07;97140.91;;;13.03;100.00
18795;BME280;29610;49.022;12.114;2023-03-25T08:07:56;97141.09;;;13.10;100.00
18795;BME280;29610;49.022;12.114;2023-03-25T08:10:46;97149.09;;;13.19;100.00
18795;BME280;29610;49.022;12.114;2023-03-25T08:13:36;97148.75;;;13.05;100.00
18795;BME280;29610;49.022;12.114;2023-03-25T08:16:25;97144.81;;;12.90;100.00
18795;BME280;29610;49.022;12.114;2023-03-25T08:19:15;97145.09;;;12.73;100.00
18795;BME280;29610;49.022;12.114;2023-03-25T08:22:04;97154.34;;;12.69;100.00
18795;BME280;29610;49.022;12.114;2023-03-25T08:24:53;97142.81;;;12.48;100.00
18795;BME280;29610;49.022;12.114;2023-03-25T08:27:42;97142.75;;;12.44;100.00
18795;BME280;29610;49.022;12.114;2023-03-25T08:30:31;97139.88;;;13.08;100.00
18795;BME280;29610;49.022;12.114;2023-03-25T08:33:25;97142.63;;;12.96;100.00
18795;BME280;29610;49.022;12.114;2023-03-25T08:36:21;97149.44;;;12.74;100.00
18795;BME280;29610;49.022;12.114;2023-03-25T08:39:10;97154.75;;;12.55;100.00
18795;BME280;29610;49.022;12.114;2023-03-25T08:42:04;97151.94;;;12.12;100.00
18795;BME280;29610;49.022;12.114;2023-03-25T08:44:53;97155.34;;;12.09;100.00
18795;BME280;29610;49.022;12.114;2023-03-25T08:47:42;97164.50;;;12.84;100.00
18795;BME280;29610;49.022;12.114;2023-03-25T08:50:32;97145.78;;;13.26;100.00
18795;BME280;29610;49.022;12.114;2023-03-25T08:53:23;97158.63;;;13.25;100.00
18795;BME280;29610;49.022;12.114;2023-03-25T08:56:11;97148.91;;;13.27;100.00
18795;BME280;29610;49.022;12.114;2023-03-25T08:59:00;97141.78;;;13.23;100.00
18795;BME280;29610;49.022;12.114;2023-03-25T09:01:49;97150.00;;;13.39;100.00
18795;BME280;29610;49.022;12.114;2023-03-25T09:04:42;97137.56;;;13.57;100.00
18795;BME280;29610;49.022;12.114;2023-03-25T09:07:31;97134.91;;;13.76;100.00
18795;BME280;29610;49.022;12.114;2023-03-25T09:10:22;97147.94;;;13.82;100.00
18795;BME280;29610;49.022;12.114;2023-03-25T09:13:11;97125.09;;;13.90;100.00
18795;BME280;29610;49.022;12.114;2023-03-25T09:16:00;97125.13;;;13.75;100.00
18795;BME280;29610;49.022;12.114;2023-03-25T09:18:49;97122.94;;;14.15;100.00
18795;BME280;29610;49.022;12.114;2023-03-25T09:21:38;97119.97;;;14.58;100.00
18795;BME280;29610;49.022;12.114;2023-03-25T09:24:27;97114.63;;;15.29;100.00
18795;BME280;29610;49.022;12.114;2023-03-25T09:27:17;97113.25;;;15.39;100.00
18795;BME280;29610;49.022;12.114;2023-03-25T09:30:09;97109.91;;;15.26;100.00
18795;BME280;29610;49.022;12.114;2023-03-25T09:32:59;97117.88;;;16.09;100.00
18795;BME280;29610;49.022;12.114;2023-03-25T09:35:48;97108.03;;;16.35;100.00
18795;BME280;29610;49.022;12.114;2023-03-25T09:38:38;97112.09;;;15.88;100.00
18795;BME280;29610;49.022;12.114;2023-03-25T09:41:49;97119.78;;;14.70;100.00
18795;BME280;29610;49.022;12.114;2023-03-25T09:44:54;97121.19;;;14.07;100.00
18795;BME280;29610;49.022;12.114;2023-03-25T09:48:03;97114.63;;;14.27;100.00
18795;BME280;29610;49.022;12.114;2023-03-25T09:50:54;97114.47;;;14.77;100.00
18795;BME280;29610;49.022;12.114;2023-03-25T09:53:50;97106.94;;;14.51;100.00
18795;BME280;29610;49.022;12.114;2023-03-25T09:56:43;97100.06;;;14.80;100.00
18795;BME280;29610;49.022;12.114;2023-03-25T09:59:42;97105.56;;;14.61;100.00
18795;BME280;29610;49.022;12.114;2023-03-25T10:02:39;97096.66;;;14.45;100.00
18795;BME280;29610;49.022;12.114;2023-03-25T10:06:03;97102.84;;;14.42;100.00
18795;BME280;29610;49.022;12.114;2023-03-25T10:09:27;97098.38;;;14.53;100.00
18795;BME280;29610;49.022;12.114;2023-03-25T10:12:36;97090.00;;;14.65;100.00
18795;BME280;29610;49.022;12.114;2023-03-25T10:15:36;97088.16;;;14.50;100.00
18795;BME280;29610;49.022;12.114;2023-03-25T10:18:44;97088.53;;;14.48;100.00
18795;BME280;29610;49.022;12.114;2023-03-25T10:21:42;97072.78;;;14.84;100.00
18795;BME280;29610;49.022;12.114;2023-03-25T10:24:41;97087.66;;;14.44;100.00
18795;BME280;29610;49.022;12.114;2023-03-25T10:27:38;97087.00;;;14.32;100.00
18795;BME280;29610;49.022;12.114;2023-03-25T10:30:34;97075.03;;;15.01;100.00
18795;BME280;29610;49.022;12.114;2023-03-25T10:33:35;97080.16;;;15.02;100.00
18795;BME280;29610;49.022;12.114;2023-03-25T10:36:32;97075.88;;;15.05;100.00
18795;BME280;29610;49.022;12.114;2023-03-25T10:39:28;97076.66;;;14.83;100.00
18795;BME280;29610;49.022;12.114;2023-03-25T10:42:32;97072.50;;;14.89;100.00
18795;BME280;29610;49.022;12.114;2023-03-25T10:45:23;97069.44;;;14.94;100.00
18795;BME280;29610;49.022;12.114;2023-03-25T10:48:20;97069.19;;;15.73;100.00
18795;BME280;29610;49.022;12.114;2023-03-25T10:51:15;97067.28;;;16.33;100.00
18795;BME280;29610;49.022;12.114;2023-03-25T10:54:05;97063.25;;;16.24;100.00
18795;BME280;29610;49.022;12.114;2023-03-25T10:56:57;97065.25;;;16.93;100.00
18795;BME280;29610;49.022;12.114;2023-03-25T10:59:58;97058.97;;;16.56;100.00
18795;BME280;29610;49.022;12.114;2023-03-25T11:02:49;97054.19;;;16.49;100.00
18795;BME280;29610;49.022;12.114;2023-03-25T11:05:38;97073.84;;;15.69;100.00
18795;BME280;29610;49.022;12.114;2023-03-25T11:08:29;97064.91;;;15.24;100.00
18795;BME280;29610;49.022;12.114;2023-03-25T11:11:17;97058.63;;;15.72;100.00
18795;BME280;29610;49.022;12.114;2023-03-25T11:14:07;97055.91;;;16.01;100.00
18795;BME280;29610;49.022;12.114;2023-03-25T11:16:59;97046.84;;;15.97;100.00
18795;BME280;29610;49.022;12.114;2023-03-25T11:19:54;97029.34;;;16.39;100.00
18795;BME280;29610;49.022;12.114;2023-03-25T11:22:50;97024.97;;;16.64;100.00
18795;BME280;29610;49.022;12.114;2023-03-25T11:25:43;97029.94;;;16.55;100.00
18795;BME280;29610;49.022;12.114;2023-03-25T11:28:38;97010.75;;;16.55;100.00
18795;BME280;29610;49.022;12.114;2023-03-25T11:31:33;97021.28;;;16.49;99.99
18795;BME280;29610;49.022;12.114;2023-03-25T11:34:23;97015.59;;;15.72;100.00
18795;BME280;29610;49.022;12.114;2023-03-25T11:37:17;97025.09;;;15.52;100.00
18795;BME280;29610;49.022;12.114;2023-03-25T11:40:14;97021.06;;;15.46;100.00
18795;BME280;29610;49.022;12.114;2023-03-25T11:43:09;97054.97;;;14.93;100.00
18795;BME280;29610;49.022;12.114;2023-03-25T11:46:07;97050.38;;;14.36;100.00
18795;BME280;29610;49.022;12.114;2023-03-25T11:49:08;97068.81;;;13.51;100.00
18795;BME280;29610;49.022;12.114;2023-03-25T11:52:02;97071.19;;;12.47;100.00
18795;BME280;29610;49.022;12.114;2023-03-25T11:54:54;97067.03;;;12.81;100.00
18795;BME280;29610;49.022;12.114;2023-03-25T11:57:45;97060.19;;;13.18;100.00
18795;BME280;29610;49.022;12.114;2023-03-25T12:00:39;97052.94;;;13.57;100.00
18795;BME280;29610;49.022;12.114;2023-03-25T12:03:32;97059.66;;;13.44;100.00
18795;BME280;29610;49.022;12.114;2023-03-25T12:06:22;97053.22;;;13.86;100.00
18795;BME280;29610;49.022;12.114;2023-03-25T12:09:11;97036.28;;;14.76;100.00
18795;BME280;29610;49.022;12.114;2023-03-25T12:12:29;97030.63;;;15.33;100.00
18795;BME280;29610;49.022;12.114;2023-03-25T12:15:34;97029.34;;;15.50;100.00
18795;BME280;29610;49.022;12.114;2023-03-25T12:18:56;97016.69;;;15.19;100.00
18795;BME280;29610;49.022;12.114;2023-03-25T12:22:12;97015.59;;;15.46;100.00
18795;BME280;29610;49.022;12.114;2023-03-25T12:25:17;96998.31;;;15.98;100.00
18795;BME280;29610;49.022;12.114;2023-03-25T12:28:51;97001.44;;;16.30;100.00
18795;BME280;29610;49.022;12.114;2023-03-25T12:32:01;96994.69;;;16.97;100.00
18795;BME280;29610;49.022;12.114;2023-03-25T12:35:16;96981.16;;;16.74;100.00
18795;BME280;29610;49.022;12.114;2023-03-25T12:38:36;96995.25;;;15.73;100.00
18795;BME280;29610;49.022;12.114;2023-03-25T12:41:38;96999.16;;;15.46;100.00
18795;BME280;29610;49.022;12.114;2023-03-25T12:44:52;96989.81;;;15.25;100.00
18795;BME280;29610;49.022;12.114;2023-03-25T12:47:51;96960.38;;;15.70;100.00
18795;BME280;29610;49.022;12.114;2023-03-25T12:50:54;96975.81;;;15.30;100.00
18795;BME280;29610;49.022;12.114;2023-03-25T12:53:58;96988.59;;;15.22;100.00
18795;BME280;29610;49.022;12.114;2023-03-25T12:57:03;96985.25;;;14.61;100.00
18795;BME280;29610;49.022;12.114;2023-03-25T13:00:24;96994.25;;;14.42;100.00
18795;BME280;29610;49.022;12.114;2023-03-25T13:03:52;96994.78;;;13.72;100.00
18795;BME280;29610;49.022;12.114;2023-03-25T13:06:53;97004.66;;;13.26;100.00
18795;BME280;29610;49.022;12.114;2023-03-25T13:09:57;97026.47;;;12.21;100.00
18795;BME280;29610;49.022;12.114;2023-03-25T13:12:53;97041.41;;;11.23;100.00
18795;BME280;29610;49.022;12.114;2023-03-25T13:15:49;97040.06;;;10.81;100.00
18795;BME280;29610;49.022;12.114;2023-03-25T13:18:47;97053.16;;;10.22;100.00
18795;BME280;29610;49.022;12.114;2023-03-25T13:21:44;97053.38;;;10.17;100.00
18795;BME280;29610;49.022;12.114;2023-03-25T13:24:44;97039.88;;;10.54;100.00
18795;BME280;29610;49.022;12.114;2023-03-25T13:27:40;97024.09;;;10.80;100.00
18795;BME280;29610;49.022;12.114;2023-03-25T13:30:33;97033.59;;;10.98;100.00
18795;BME280;29610;49.022;12.114;2023-03-25T13:33:30;97040.19;;;11.09;100.00
18795;BME280;29610;49.022;12.114;2023-03-25T13:36:27;97043.47;;;11.02;100.00
18795;BME280;29610;49.022;12.114;2023-03-25T13:39:23;97043.88;;;10.80;100.00
18795;BME280;29610;49.022;12.114;2023-03-25T13:42:17;97044.13;;;10.87;100.00
18795;BME280;29610;49.022;12.114;2023-03-25T13:45:16;97039.81;;;11.70;100.00
18795;BME280;29610;49.022;12.114;2023-03-25T13:48:14;97044.41;;;12.22;100.00
18795;BME280;29610;49.022;12.114;2023-03-25T13:51:06;97036.91;;;13.20;100.00
18795;BME280;29610;49.022;12.114;2023-03-25T13:54:01;97027.13;;;13.35;100.00
18795;BME280;29610;49.022;12.114;2023-03-25T14:04:36;97029.34;;;15.50;100.00
18795;BME280;29610;49.022;12.114;2023-03-25T14:11:23;97027.56;;;16.20;100.00
18795;BME280;29610;49.022;12.114;2023-03-25T14:14:17;97021.59;;;16.44;100.00
18795;BME280;29610;49.022;12.114;2023-03-25T14:17:09;97012.34;;;16.56;100.00
18795;BME280;29610;49.022;12.114;2023-03-25T14:20:00;97006.75;;;16.16;100.00
18795;BME280;29610;49.022;12.114;2023-03-25T14:22:57;96998.97;;;16.18;100.00
18795;BME280;29610;49.022;12.114;2023-03-25T14:25:53;96996.97;;;16.48;100.00
18795;BME280;29610;49.022;12.114;2023-03-25T14:28:45;96991.78;;;16.43;100.00
18795;BME280;29610;49.022;12.114;2023-03-25T14:31:36;96984.50;;;16.54;100.00
18795;BME280;29610;49.022;12.114;2023-03-25T14:34:26;96980.69;;;16.65;100.00
18795;BME280;29610;49.022;12.114;2023-03-25T14:37:25;96970.16;;;16.71;100.00
18795;BME280;29610;49.022;12.114;2023-03-25T14:40:45;96971.16;;;16.92;100.00
18795;BME280;29610;49.022;12.114;2023-03-25T14:44:09;96957.03;;;16.17;100.00
18795;BME280;29610;49.022;12.114;2023-03-25T14:47:25;96958.50;;;15.74;100.00
18795;BME280;29610;49.022;12.114;2023-03-25T14:50:30;96961.47;;;14.65;100.00
18795;BME280;29610;49.022;12.114;2023-03-25T14:53:21;96988.38;;;14.40;100.00
18795;BME280;29610;49.022;12.114;2023-03-25T14:56:18;96988.81;;;14.23;100.00
18795;BME280;29610;49.022;12.114;2023-03-25T14:59:13;96975.38;;;14.15;100.00
18795;BME280;29610;49.022;12.114;2023-03-25T15:02:14;96964.00;;;14.32;100.00
18795;BME280;29610;49.022;12.114;2023-03-25T15:05:16;96971.41;;;13.74;100.00
18795;BME280;29610;49.022;12.114;2023-03-25T15:08:14;96975.25;;;13.89;100.00
18795;BME280;29610;49.022;12.114;2023-03-25T15:11:08;96972.16;;;13.90;100.00
18795;BME280;29610;49.022;12.114;2023-03-25T15:14:03;96971.94;;;13.61;100.00
18795;BME280;29610;49.022;12.114;2023-03-25T15:17:01;96973.66;;;13.34;100.00
18795;BME280;29610;49.022;12.114;2023-03-25T15:20:33;96995.16;;;13.20;100.00